• Join FlightAware (Why Join?)
  • Login
  • US Flag 
08:49PM EDT


 

Airport Tracker/Info


-or-


 

Live Flight TrackerFlight Track Log ✈ DAL110 ✈ 19-Jul-2013 ✈ KATL - KLAX

Flight Track Log - Related Links

Times and Time Zones

All times are in EDT time to prevent confusion due to time zone crossing. See the DAL110 flight status page for this flight to view local times or setup timezone preferences in your user account.

Time Position Orientation Groundspeed Altitude Reporting Facility
EDT Latitude Longitude Course Direction KTS MPH feet Rate Location/Type
08:46AM 33.6500 -84.4833 270° West 196 226 2,700  Level Atlanta TRACON
08:47AM 33.6667 -84.5500 287° West 244 281 4,800 2,520 Climbing Atlanta TRACON
08:48AM 33.6833 -84.6333 284° West 273 314 7,500 2,640 Climbing Atlanta TRACON
08:50AM 33.8001 -84.7118 270° West  Level FlightAware Approximate
08:50AM 33.7003 -84.7678 279° West 303 349 11,500  Level Atlanta Center
08:51AM 33.8000 -84.8640 270° West  Level FlightAware Approximate
08:51AM 33.7142 -84.8656 280° West 308 354 13,700  Level Atlanta Center
08:52AM 33.7322 -84.9806 281° West 333 383 14,700 1,320 Climbing Atlanta Center
08:53AM 33.7519 -85.1106 280° West 382 440 16,400 2,220 Climbing Atlanta Center
08:54AM 33.7736 -85.2558 280° West 406 467 19,200 2,700 Climbing Atlanta Center
08:55AM 33.7933 -85.3786 281° West 401 461 21,800 2,100 Climbing Atlanta Center
08:56AM 33.8147 -85.4989 282° West 381 438 23,400 1,080 Climbing Atlanta Center
08:57AM 33.8383 -85.6319 282° West 387 445 24,000 600 Climbing Atlanta Center
08:58AM 33.8803 -85.7703 290° West 427 491 24,600 660 Climbing Atlanta Center
08:59AM 33.9181 -85.8936 290° West 437 503 25,400 960 Climbing Atlanta Center
09:00AM 33.9658 -86.0450 291° West 457 526 26,600 1,140 Climbing Atlanta Center
09:01AM 34.0111 -86.1989 290° West 478 550 27,700 1,020 Climbing Atlanta Center
09:02AM 34.0581 -86.3731 288° West 491 565 28,700 1,200 Climbing Atlanta Center
09:03AM 34.0992 -86.5147 289° West 496 571 30,100 1,380 Climbing Atlanta Center
09:04AM 34.1617 -86.7400 289° West 505 581 32,100 1,440 Climbing Memphis Center
09:05AM 34.2106 -86.9161 289° West 505 581 33,600 1,200 Climbing Memphis Center
09:06AM 34.2500 -87.0606 288° West 515 593 34,600 1,020 Climbing Memphis Center
09:07AM 34.2961 -87.2322 288° West 495 570 35,700 1,020 Climbing Memphis Center
09:08AM 34.3394 -87.3864 289° West 482 555 36,700 840 Climbing Memphis Center
09:09AM 34.3850 -87.5458 289° West 487 560 37,400 600 Climbing Memphis Center
09:10AM 34.4281 -87.7006 289° West 487 560 38,000 300 Climbing Memphis Center
09:11AM 34.4669 -87.8606 286° West 492 566 38,000  Level Memphis Center
09:12AM 34.5094 -88.0181 288° West 497 572 38,000  Level Memphis Center
09:13AM 34.5542 -88.1808 288° West 501 577 38,000  Level Memphis Center
09:14AM 34.5944 -88.3389 287° West 506 582 38,000  Level Memphis Center
09:15AM 34.6278 -88.4642 288° West 501 577 38,000  Level Memphis Center
09:16AM 34.6719 -88.6325 288° West 488 562 38,000  Level Memphis Center
09:17AM 34.7136 -88.7958 287° West 488 562 38,000  Level Memphis Center
09:18AM 34.7553 -88.9517 288° West 488 562 38,000  Level Memphis Center
09:19AM 34.7967 -89.1103 288° West 493 567 38,000  Level Memphis Center
09:20AM 34.8378 -89.2667 288° West 493 567 38,000  Level Memphis Center
09:21AM 34.8786 -89.4281 287° West 493 567 38,000  Level Memphis Center
09:22AM 34.9214 -89.5847 288° West 493 567 38,000  Level Memphis Center
09:23AM 34.9581 -89.7692 284° West 498 573 38,000  Level Memphis Center
09:24AM 35.0025 -89.9161 290° West 515 593 38,000  Level Memphis Center
09:25AM 35.0278 -90.0781 281° West 509 586 38,000  Level Memphis Center
09:26AM 35.0447 -90.2431 277° West 504 580 38,000  Level Memphis Center
09:27AM 35.0594 -90.4078 276° West 499 574 38,000  Level Memphis Center
09:28AM 35.0781 -90.5703 278° West 499 574 38,000  Level Memphis Center
09:29AM 35.0944 -90.7378 277° West 493 567 38,000  Level Memphis Center
09:30AM 35.1106 -90.9181 276° West 493 567 38,000  Level Memphis Center
09:31AM 35.1264 -91.0806 277° West 493 567 38,000  Level Memphis Center
09:32AM 35.1419 -91.2433 277° West 493 567 38,000  Level Memphis Center
09:33AM 35.1533 -91.3883 276° West 493 567 38,000  Level Memphis Center
09:34AM 35.1686 -91.5508 277° West 488 562 38,000  Level Memphis Center
09:35AM 35.1836 -91.7164 276° West 483 556 38,000  Level Memphis Center
09:36AM 35.2006 -91.8767 277° West 483 556 38,000  Level Memphis Center
09:37AM 35.2131 -92.0394 275° West 483 556 38,000  Level Memphis Center
09:38AM 35.2275 -92.2000 276° West 483 556 38,000  Level Memphis Center
09:39AM 35.2417 -92.3656 276° West 483 556 38,000  Level Memphis Center
09:40AM 35.2533 -92.5286 275° West 483 556 38,000  Level Memphis Center
09:41AM 35.2731 -92.7197 277° West 498 573 38,000  Level Memphis Center
09:42AM 35.2844 -92.8778 275° West 500 575 38,000  Level Memphis Center
09:43AM 35.2978 -93.0411 276° West 495 570 38,000  Level Memphis Center
09:44AM 35.3108 -93.2017 276° West 490 564 38,000  Level Memphis Center
09:45AM 35.3236 -93.3675 275° West 482 555 38,000  Level Memphis Center
09:46AM 35.3325 -93.5206 274° West 477 549 38,000  Level Memphis Center
09:47AM 35.3447 -93.6839 275° West 477 549 38,000  Level Memphis Center
09:48AM 35.3572 -93.8447 275° West 482 555 38,000  Level Memphis Center
09:49AM 35.3692 -94.0058 275° West 482 555 38,000  Level Memphis Center
09:50AM 35.3811 -94.1667 275° West 482 555 38,000  Level Memphis Center
09:52AM 35.3872 -94.4192 272° West 474 545 38,000  Level Fort Worth Center
09:53AM 35.3867 -94.5797 270° West 474 545 38,000  Level Fort Worth Center
09:54AM 35.3881 -94.7375 271° West 474 545 38,000  Level Fort Worth Center
09:55AM 35.3894 -94.8978 271° West 474 545 38,000  Level Fort Worth Center
09:56AM 35.3883 -95.0583 270° West 474 545 38,000  Level Fort Worth Center
09:57AM 35.3892 -95.2161 270° West 474 545 38,000  Level Fort Worth Center
09:58AM 35.3892 -95.3433 270° West 474 545 38,000  Level Fort Worth Center
09:59AM 35.3878 -95.5192 269° West 474 545 38,000  Level Fort Worth Center
10:00AM 35.3858 -95.6797 269° West 474 545 38,000  Level Fort Worth Center
10:01AM 35.3858 -95.8350 270° West 474 545 38,000  Level Fort Worth Center
10:02AM 35.3817 -96.0056 268° West 469 540 38,000  Level Fort Worth Center
10:03AM 35.3814 -96.1658 270° West 469 540 38,000  Level Fort Worth Center
10:04AM 35.3786 -96.3214 269° West 464 534 38,000  Level Fort Worth Center
10:05AM 35.3778 -96.4792 270° West 464 534 38,000  Level Fort Worth Center
10:06AM 35.3747 -96.6344 269° West 459 528 38,000  Level Fort Worth Center
10:07AM 35.3714 -96.7925 269° West 459 528 38,000  Level Fort Worth Center
10:08AM 35.3700 -96.9453 269° West 459 528 38,000  Level Fort Worth Center
10:09AM 35.3661 -97.1006 268° West 459 528 38,000  Level Fort Worth Center
10:10AM 35.3728 -97.2456 273° West 467 537 38,000  Level Fort Worth Center
10:11AM 35.3708 -97.3983 269° West 467 537 38,000  Level Fort Worth Center
10:12AM 35.3581 -97.5842 265° West 493 567 38,000  Level Fort Worth Center
10:13AM 35.3744 -97.7217 278° West 481 554 38,000  Level Fort Worth Center
10:14AM 35.4094 -97.8694 286° West 465 535 38,000  Level Fort Worth Center
10:15AM 35.4403 -98.0225 284° West 465 535 38,000  Level Fort Worth Center
10:16AM 35.4728 -98.1731 285° West 460 529 38,000  Level Fort Worth Center
10:17AM 35.5008 -98.3239 283° West 460 529 38,000  Level Fort Worth Center
10:18AM 35.5331 -98.4772 285° West 460 529 38,000  Level Fort Worth Center
10:19AM 35.5608 -98.6306 283° West 460 529 38,000  Level Fort Worth Center
10:20AM 35.5944 -98.7972 284° West 460 529 38,000  Level Fort Worth Center
10:21AM 35.6239 -98.9533 283° West 466 536 38,000 180 Level Fort Worth Center
10:22AM 35.6492 -99.1097 281° West 471 542 38,400 480 Climbing Fort Worth Center
10:23AM 35.6467 -99.2756 269° West 471 542 39,000 540 Climbing Fort Worth Center
10:24AM 35.6489 -99.4950 271° West 470 541 39,800 360 Climbing Albuquerque Center
10:25AM 35.6469 -99.6575 269° West 471 542 40,000 60 Climbing Albuquerque Center
10:26AM 35.6433 -99.8178 268° West 468 539 40,000  Level Albuquerque Center
10:27AM 35.6400 -100.0100 269° West 467 537 40,000  Level Albuquerque Center
10:28AM 35.6361 -100.1731 268° West 472 543 40,000  Level Albuquerque Center
10:29AM 35.6328 -100.3364 269° West 476 548 40,000  Level Albuquerque Center
10:30AM 35.6308 -100.5006 269° West 478 550 40,000  Level Albuquerque Center
10:31AM 35.6217 -100.6764 266° West 476 548 40,100  Climbing Albuquerque Center
10:32AM 35.6178 -100.8394 268° West 479 551 40,100  Level Albuquerque Center
10:33AM 35.6136 -101.0028 268° West 480 552 40,100 -60 Level Albuquerque Center
10:34AM 35.6092 -101.1656 268° West 483 556 40,000  Descending Albuquerque Center
10:35AM 35.6028 -101.3267 267° West 478 550 40,100  Climbing Albuquerque Center
10:36AM 35.5961 -101.5200 268° West 477 549 40,000  Descending Albuquerque Center
10:37AM 35.5908 -101.6825 268° West 481 554 40,100  Climbing Albuquerque Center
10:38AM 35.5839 -101.8436 267° West 481 554 40,000 -60 Descending Albuquerque Center
10:40AM 35.5781 -102.0061 268° West 481 554 40,000  Level Albuquerque Center
10:41AM 35.5717 -102.1681 267° West 480 552 40,000  Level Albuquerque Center
10:42AM 35.5628 -102.3633 267° West 480 552 40,000  Level Albuquerque Center
10:43AM 35.5553 -102.5261 267° West 480 552 40,100  Climbing Albuquerque Center
10:44AM 35.5483 -102.6961 267° West 482 555 40,100  Level Albuquerque Center
10:45AM 35.5400 -102.8611 266° West 481 554 40,100 -60 Level Albuquerque Center
10:46AM 35.5333 -103.0272 267° West 484 557 40,000 -60 Descending Albuquerque Center
10:47AM 35.5250 -103.1936 267° West 485 558 40,000  Level Albuquerque Center
10:48AM 35.5169 -103.3600 267° West 485 558 40,100  Climbing Albuquerque Center
10:49AM 35.5069 -103.5544 266° West 486 559 40,000  Descending Albuquerque Center
10:50AM 35.4978 -103.7214 266° West 488 562 40,100  Climbing Albuquerque Center
10:51AM 35.4889 -103.8886 266° West 489 563 40,000 -60 Descending Albuquerque Center
10:52AM 35.4803 -104.0550 266° West 489 563 40,000  Level Albuquerque Center
10:53AM 35.4706 -104.2214 266° West 491 565 40,000  Level Albuquerque Center
10:54AM 35.4578 -104.4158 265° West 493 567 40,100  Climbing Albuquerque Center
10:55AM 35.4467 -104.5814 265° West 489 563 40,100 -60 Level Albuquerque Center
10:56AM 35.4369 -104.7486 266° West 489 563 40,000  Descending Albuquerque Center
10:57AM 35.4264 -104.9167 266° West 491 565 40,100  Climbing Albuquerque Center
10:58AM 35.4158 -105.0836 266° West 490 564 40,100 -60 Level Albuquerque Center
10:59AM 35.4050 -105.2478 265° West 484 557 40,000 -60 Descending Albuquerque Center
11:00AM 35.3922 -105.4381 265° West 477 549 40,000  Level Albuquerque Center
11:01AM 35.3803 -105.6022 265° West 479 551 40,100  Climbing Albuquerque Center
11:02AM 35.3678 -105.7642 265° West 476 548 40,100  Level Albuquerque Center
11:03AM 35.3567 -105.9275 265° West 477 549 40,100  Level Albuquerque Center
11:04AM 35.3453 -106.0900 265° West 476 548 40,100 -60 Level Albuquerque Center
11:05AM 35.3339 -106.2589 265° West 476 548 40,000 -60 Descending Albuquerque Center
11:06AM 35.3225 -106.4194 265° West 476 548 40,000  Level Albuquerque Center
11:07AM 35.3086 -106.6000 265° West 477 549 40,000  Level Albuquerque Center
11:08AM 35.2967 -106.7542 265° West 476 548 40,000  Level Albuquerque Center
11:10AM 35.2811 -106.9344 264° West 477 549 40,000  Level Albuquerque Center
11:11AM 35.2692 -107.0875 265° West 473 544 40,000  Level Albuquerque Center
11:12AM 35.2561 -107.2467 264° West 481 554 40,000  Level Albuquerque Center
11:13AM 35.2417 -107.4058 264° West 477 549 40,000  Level Albuquerque Center
11:14AM 35.2250 -107.6000 264° West 470 541 40,000  Level Albuquerque Center
11:15AM 35.2100 -107.7536 263° West 472 543 40,000  Level Albuquerque Center
11:16AM 35.1992 -107.9033 265° West 466 536 40,000  Level Albuquerque Center
11:17AM 35.1831 -108.0833 264° West 471 542 40,100  Climbing Albuquerque Center
11:18AM 35.1683 -108.2364 263° West 470 541 40,100 -60 Level Albuquerque Center
11:19AM 35.1525 -108.4128 264° West 469 540 40,000  Descending Albuquerque Center
11:20AM 35.1383 -108.5661 264° West 470 541 40,100  Climbing Albuquerque Center
11:21AM 35.1211 -108.7450 263° West 471 542 40,000  Descending Albuquerque Center
11:22AM 35.1064 -108.8975 263° West 472 543 40,100  Climbing Albuquerque Center
11:23AM 35.0903 -109.0756 264° West 471 542 40,100  Level Albuquerque Center
11:24AM 35.0747 -109.2281 263° West 471 542 40,100  Level Albuquerque Center
11:25AM 35.0597 -109.3808 263° West 471 542 40,100  Level Albuquerque Center
11:26AM 35.0414 -109.5583 263° West 472 543 40,100  Level Albuquerque Center
11:27AM 35.0264 -109.7119 263° West 472 543 40,100  Level Albuquerque Center
11:28AM 35.0075 -109.8914 263° West 475 547 40,100  Level Albuquerque Center
11:29AM 34.9914 -110.0439 263° West 474 545 40,100 -60 Level Albuquerque Center
11:30AM 34.9706 -110.2208 262° West 473 544 40,000  Descending Albuquerque Center
11:31AM 34.9489 -110.3725 260° West 474 545 40,100  Climbing Albuquerque Center
11:32AM 34.9242 -110.5497 260° West 473 544 40,100 -60 Level Albuquerque Center
11:33AM 34.9031 -110.7006 260° West 473 544 40,000 -60 Descending Albuquerque Center
11:34AM 34.8814 -110.8553 260° West 477 549 40,000  Level Albuquerque Center
11:35AM 34.8600 -111.0139 261° West 478 550 40,000  Level Albuquerque Center
11:36AM 34.8350 -111.2089 261° West 486 559 40,000  Level Albuquerque Center
11:37AM 34.8133 -111.3658 260° West 478 550 40,000  Level Albuquerque Center
11:38AM 34.7908 -111.5247 260° West 479 551 40,000  Level Albuquerque Center
11:39AM 34.7683 -111.6822 260° West 477 549 40,000  Level Albuquerque Center
11:41AM 34.7461 -111.8419 260° West 480 552 40,000  Level Albuquerque Center
11:42AM 34.7175 -112.0303 260° West 478 550 40,000  Level Albuquerque Center
11:43AM 34.6953 -112.1869 260° West 476 548 40,000  Level Albuquerque Center
11:44AM 34.6722 -112.3447 260° West 476 548 40,000  Level Albuquerque Center
11:45AM 34.6486 -112.5006 260° West 475 547 40,000  Level Albuquerque Center
11:46AM 34.6253 -112.6578 260° West 474 545 40,000  Level Albuquerque Center
11:47AM 34.5961 -112.8469 259° West 474 545 40,000  Level Albuquerque Center
11:48AM 34.5719 -113.0042 259° West 475 547 40,000  Level Albuquerque Center
11:49AM 34.5469 -113.1622 259° West 476 548 40,000  Level Albuquerque Center
11:50AM 34.5228 -113.3211 260° West 478 550 40,000  Level Albuquerque Center
11:51AM 34.4975 -113.4764 259° West 474 545 40,000  Level Albuquerque Center
11:52AM 34.4672 -113.6667 259° West 479 551 40,000  Level Albuquerque Center
11:53AM 34.4417 -113.8247 259° West 479 551 40,000  Level Albuquerque Center
11:54AM 34.4178 -113.9803 259° West 476 548 40,100  Climbing Albuquerque Center
11:55AM 34.3928 -114.1364 259° West 474 545 40,100 -60 Level Albuquerque Center
11:56AM 34.3783 -114.2261 259° West 470 541 40,000 -60 Descending Los Angeles Center
11:57AM 34.3475 -114.4117 259° West 464 534 40,000  Level Los Angeles Center
11:58AM 34.3222 -114.5661 259° West 467 537 40,000  Level Los Angeles Center
11:59AM 34.2964 -114.7164 258° West 458 527 40,000  Level Los Angeles Center
12:00PM 34.2703 -114.8672 258° West 461 531 40,000  Level Los Angeles Center
12:01PM 34.2450 -115.0172 259° West 458 527 40,000  Level Los Angeles Center
12:02PM 34.2192 -115.1658 258° West 455 524 40,000  Level Los Angeles Center
12:03PM 34.1833 -115.3714 258° West 452 520 40,000 -60 Level Los Angeles Center
12:04PM 34.1578 -115.5186 258° West 450 518 39,900 -1,020 Descending Los Angeles Center
12:05PM 34.1306 -115.6650 257° West 448 516 37,700 -2,340 Descending Los Angeles Center
12:06PM 34.1000 -115.8469 259° West 461 531 34,600 -3,000 Descending Los Angeles Center
12:07PM 34.0786 -115.9997 260° West 463 533 31,500 -2,640 Descending Los Angeles Center
12:09PM 34.0525 -116.1803 260° West 458 527 29,100 -2,160 Descending Los Angeles Center
12:10PM 34.0292 -116.3239 259° West 442 509 27,100 -1,920 Descending Los Angeles Center
12:11PM 34.0092 -116.4622 260° West 424 488 25,200 -1,800 Descending Los Angeles Center
12:12PM 33.9964 -116.5978 264° West 411 473 23,500 -1,620 Descending Los Angeles Center
12:13PM 33.9858 -116.7292 265° West 400 460 21,600 -2,040 Descending Los Angeles Center
12:14PM 33.9703 -116.9294 265° West 432 497 18,900 -2,100 Descending Los Angeles Center
12:15PM 33.9608 -117.0419 264° West 429 494 17,300 -1,260 Descending Los Angeles Center
12:16PM 33.9483 -117.1933 264° West 395 455 16,300 -1,320 Descending Los Angeles Center
12:17PM 33.9353 -117.3203 263° West 382 440 14,600 -1,680 Descending Los Angeles Center
12:18PM 33.9533 -117.4358 281° West 363 418 12,900 -1,680 Descending Los Angeles Center
12:19PM 34.0000 -117.5667 293° West 343 395 11,000 -1,320 Descending Southern California TRACON
12:20PM 34.0167 -117.6833 280° West 301 346 10,200 -1,020 Descending Southern California TRACON
12:21PM 34.0000 -117.7667 256° West 284 327 9,000 -1,080 Descending Southern California TRACON
12:22PM 33.9833 -117.8667 259° West 260 299 8,000 -1,200 Descending Southern California TRACON
12:23PM 33.9833 -117.9667 270° West 261 300 6,600 -1,020 Descending Southern California TRACON
12:24PM 33.9667 -118.0333 253° West 224 258 6,000 -900 Descending Southern California TRACON
12:25PM 33.9667 -118.1167 270° West 221 254 4,900 -1,140 Descending Southern California TRACON